createdAt,value
2023-03-16T00:03:47.788Z,36.43
2023-03-16T00:08:49.771Z,36.24
2023-03-16T00:13:52.269Z,35.72
2023-03-16T00:18:54.065Z,35.25
2023-03-16T00:23:56.314Z,35.45
2023-03-16T00:28:58.083Z,35.67
2023-03-16T00:33:59.786Z,36.46
2023-03-16T00:39:02.310Z,37.54
2023-03-16T00:44:05.638Z,36.46
2023-03-16T00:49:07.397Z,36.53
2023-03-16T00:54:09.119Z,35.91
2023-03-16T00:59:12.994Z,35.94
2023-03-16T01:04:14.880Z,36.90
2023-03-16T01:09:16.690Z,36.86
2023-03-16T01:14:19.774Z,39.66
2023-03-16T01:19:22.828Z,38.17
2023-03-16T01:24:24.571Z,36.83
2023-03-16T01:29:26.602Z,37.19
2023-03-16T01:34:32.043Z,36.58
2023-03-16T01:39:34.461Z,36.70
2023-03-16T01:44:57.853Z,36.88
2023-03-16T01:50:06.589Z,37.56
2023-03-16T01:55:15.895Z,37.10
2023-03-16T02:00:21.733Z,37.66
2023-03-16T02:05:59.943Z,37.40
2023-03-16T02:11:04.802Z,36.10
2023-03-16T02:16:27.105Z,36.62
2023-03-16T02:21:39.059Z,36.98
2023-03-16T02:26:57.612Z,36.52
2023-03-16T02:32:02.948Z,36.28
2023-03-16T02:37:06.381Z,36.10
2023-03-16T02:42:14.054Z,35.49
2023-03-16T02:47:27.083Z,36.88
2023-03-16T02:52:29.000Z,37.56
2023-03-16T02:57:31.730Z,36.17
2023-03-16T03:02:38.339Z,35.78
2023-03-16T03:07:40.252Z,36.45
2023-03-16T03:12:43.127Z,36.60
2023-03-16T03:17:45.849Z,36.70
2023-03-16T03:22:50.306Z,36.35
2023-03-16T03:27:54.477Z,36.25
2023-03-16T03:32:57.250Z,36.61
2023-03-16T03:37:59.392Z,35.90
2023-03-16T03:43:01.784Z,38.70
2023-03-16T03:48:05.601Z,38.78
2023-03-16T03:53:08.662Z,38.42
2023-03-16T03:58:22.652Z,37.52
2023-03-16T04:03:24.691Z,38.79
2023-03-16T04:08:26.579Z,38.16
2023-03-16T04:13:28.823Z,37.47
2023-03-16T04:18:38.539Z,36.75
2023-03-16T04:23:42.494Z,36.87
2023-03-16T04:28:44.503Z,36.79
2023-03-16T04:33:50.667Z,37.00
2023-03-16T04:38:52.956Z,36.46
2023-03-16T04:43:54.773Z,36.90
2023-03-16T04:48:59.308Z,36.52
2023-03-16T04:54:03.750Z,36.51
2023-03-16T04:59:10.699Z,35.93
2023-03-16T05:04:22.034Z,38.00
2023-03-16T05:09:23.935Z,37.28
2023-03-16T05:14:26.075Z,39.16
2023-03-16T05:19:40.725Z,38.65
2023-03-16T05:24:42.845Z,39.29
2023-03-16T05:29:46.212Z,37.70
2023-03-16T05:34:48.653Z,37.60
2023-03-16T05:39:50.802Z,37.17
2023-03-16T05:44:53.804Z,38.28
2023-03-16T05:50:05.149Z,37.84
2023-03-16T05:55:14.609Z,37.27
2023-03-16T06:00:19.744Z,36.51
2023-03-16T06:05:30.349Z,36.66
2023-03-16T06:10:32.360Z,37.15
2023-03-16T06:15:34.188Z,36.66
2023-03-16T06:20:38.135Z,38.82
2023-03-16T06:25:40.977Z,38.80
2023-03-16T06:30:44.435Z,37.83
2023-03-16T06:35:48.215Z,38.92
2023-03-16T06:41:02.516Z,36.72
2023-03-16T06:46:06.765Z,37.36
2023-03-16T06:51:08.771Z,38.20
2023-03-16T06:56:11.924Z,37.99
2023-03-16T07:01:16.649Z,36.98
2023-03-16T07:06:18.546Z,36.74
2023-03-16T07:11:20.340Z,36.93
2023-03-16T07:16:22.129Z,36.58
2023-03-16T07:21:24.350Z,36.35
2023-03-16T07:26:26.675Z,37.11
2023-03-16T07:31:34.522Z,36.76
2023-03-16T07:36:39.830Z,39.14
2023-03-16T07:41:41.740Z,39.37
2023-03-16T07:46:51.518Z,38.84
2023-03-16T07:51:55.115Z,38.36
2023-03-16T07:57:02.964Z,37.29
2023-03-16T08:02:18.683Z,38.75
2023-03-16T08:07:20.804Z,38.40
2023-03-16T08:12:48.864Z,38.09
2023-03-16T08:17:52.338Z,48.04
2023-03-16T08:22:59.065Z,46.83
2023-03-16T08:28:05.955Z,42.42
2023-03-16T08:33:08.187Z,40.79
2023-03-16T08:38:12.273Z,41.77
2023-03-16T08:43:19.086Z,41.65
2023-03-16T08:48:22.155Z,51.97
2023-03-16T08:53:25.815Z,53.30
2023-03-16T08:58:27.620Z,57.37
2023-03-16T09:03:30.878Z,53.21
2023-03-16T09:08:32.990Z,43.88
2023-03-16T09:13:36.122Z,44.76
2023-03-16T09:18:37.896Z,49.59
2023-03-16T09:23:42.681Z,50.48
2023-03-16T09:28:44.542Z,48.60
2023-03-16T09:33:47.190Z,50.84
2023-03-16T09:38:48.894Z,46.07
2023-03-16T09:44:12.198Z,46.76
2023-03-16T09:49:19.807Z,49.05
2023-03-16T09:54:50.746Z,47.81
2023-03-16T09:59:53.183Z,48.11
2023-03-16T10:04:57.794Z,51.73
2023-03-16T10:10:18.363Z,50.24
2023-03-16T10:15:29.094Z,48.26
2023-03-16T10:20:33.837Z,47.62
2023-03-16T10:25:44.531Z,50.10
2023-03-16T10:30:49.494Z,48.74
2023-03-16T10:36:13.267Z,48.99
2023-03-16T10:41:18.209Z,49.36
2023-03-16T10:46:20.119Z,46.72
2023-03-16T10:51:26.883Z,42.57
2023-03-16T10:56:35.372Z,46.45
2023-03-16T11:01:37.559Z,40.40
2023-03-16T11:06:52.793Z,37.99
2023-03-16T11:11:54.748Z,35.33
2023-03-16T11:17:19.125Z,35.89
2023-03-16T11:22:25.362Z,39.99
2023-03-16T11:27:37.596Z,43.80
2023-03-16T11:32:43.326Z,40.87
2023-03-16T11:38:02.333Z,45.13
2023-03-16T11:43:12.303Z,37.34
2023-03-16T11:48:39.091Z,36.32
2023-03-16T11:53:52.492Z,40.55
2023-03-16T11:59:00.696Z,36.77
2023-03-16T12:04:18.277Z,31.55
2023-03-16T12:09:51.476Z,35.03
2023-03-16T12:15:06.345Z,38.10
2023-03-16T12:20:31.761Z,36.97
2023-03-16T12:25:39.526Z,30.62
2023-03-16T12:30:50.525Z,28.97
2023-03-16T12:36:24.451Z,31.21
2023-03-16T12:41:52.842Z,29.58
2023-03-16T12:47:06.993Z,27.38
2023-03-16T12:52:12.574Z,35.30
2023-03-16T12:57:17.065Z,34.51
2023-03-16T13:02:25.007Z,34.33
2023-03-16T13:07:31.193Z,34.12
2023-03-16T13:12:37.160Z,31.89
2023-03-16T13:17:39.289Z,31.20
2023-03-16T13:22:43.933Z,34.89
2023-03-16T13:27:52.483Z,32.47
2023-03-16T13:32:56.631Z,34.21
2023-03-16T13:38:06.599Z,33.16
2023-03-16T13:43:15.621Z,30.84
2023-03-16T13:48:20.654Z,32.97
2023-03-16T13:53:31.558Z,32.41
2023-03-16T13:58:37.131Z,29.61
2023-03-16T14:03:42.305Z,27.99
2023-03-16T14:08:50.727Z,31.41
2023-03-16T14:13:54.691Z,30.01
2023-03-16T14:19:19.221Z,30.98
2023-03-16T14:24:30.830Z,35.37
2023-03-16T14:29:33.082Z,28.34
2023-03-16T14:34:39.488Z,27.99
2023-03-16T14:39:41.851Z,31.10
2023-03-16T14:44:44.345Z,29.86
2023-03-16T14:49:48.777Z,25.77
2023-03-16T14:54:52.320Z,26.14
2023-03-16T14:59:54.501Z,31.38
2023-03-16T15:04:57.667Z,28.14
2023-03-16T15:10:16.945Z,24.86
2023-03-16T15:15:22.570Z,27.00
2023-03-16T15:20:35.327Z,28.44
2023-03-16T15:25:39.597Z,28.88
2023-03-16T15:30:43.268Z,27.70
2023-03-16T15:35:47.730Z,28.72
2023-03-16T15:40:51.317Z,28.52
2023-03-16T15:45:54.164Z,27.18
2023-03-16T15:51:12.355Z,26.99
2023-03-16T15:56:18.499Z,27.96
2023-03-16T16:01:24.195Z,25.47
2023-03-16T16:06:27.491Z,25.34
2023-03-16T16:11:29.503Z,28.87
2023-03-16T16:16:33.645Z,26.82
2023-03-16T16:21:35.739Z,24.12
2023-03-16T16:26:52.917Z,27.63
2023-03-16T16:31:56.481Z,27.11
2023-03-16T16:36:58.474Z,29.99
2023-03-16T16:42:00.884Z,30.20
2023-03-16T16:47:03.856Z,28.37
2023-03-16T16:52:06.517Z,26.28
2023-03-16T16:57:17.085Z,26.42
2023-03-16T17:02:40.945Z,24.16
2023-03-16T17:07:43.688Z,24.00
2023-03-16T17:12:45.966Z,27.41
2023-03-16T17:17:47.976Z,26.40
2023-03-16T17:22:51.403Z,25.58
2023-03-16T17:27:56.573Z,24.32
2023-03-16T17:33:11.084Z,23.63
2023-03-16T17:38:21.946Z,23.71
2023-03-16T17:43:24.283Z,24.40
2023-03-16T17:48:26.063Z,25.92
2023-03-16T17:53:27.874Z,26.91
2023-03-16T17:58:31.373Z,28.05
2023-03-16T18:03:33.333Z,28.30
2023-03-16T18:08:36.051Z,26.16
2023-03-16T18:13:40.444Z,28.04
2023-03-16T18:18:42.846Z,31.07
2023-03-16T18:23:44.697Z,31.00
2023-03-16T18:28:46.715Z,30.10
2023-03-16T18:33:51.232Z,31.49
2023-03-16T18:38:55.238Z,34.61
2023-03-16T18:43:59.730Z,34.44
2023-03-16T18:49:09.540Z,33.67
2023-03-16T18:54:21.962Z,35.21
2023-03-16T18:59:23.888Z,33.13
2023-03-16T19:04:30.717Z,37.14
2023-03-16T19:09:32.820Z,35.04
2023-03-16T19:14:35.167Z,33.00
2023-03-16T19:19:37.150Z,34.41
2023-03-16T19:24:49.052Z,34.67
2023-03-16T19:29:53.008Z,33.14
2023-03-16T19:34:54.892Z,35.75
2023-03-16T19:39:56.872Z,36.01
2023-03-16T19:44:58.773Z,36.81
2023-03-16T19:50:01.760Z,39.64
2023-03-16T19:55:03.771Z,35.87
2023-03-16T20:00:06.607Z,35.62
2023-03-16T20:05:17.061Z,35.34
2023-03-16T20:10:25.388Z,34.62
2023-03-16T20:15:33.579Z,34.57
2023-03-16T20:20:35.912Z,33.78
2023-03-16T20:25:37.900Z,34.57
2023-03-16T20:30:39.735Z,34.66
2023-03-16T20:35:41.573Z,35.30
2023-03-16T20:40:45.335Z,34.47
2023-03-16T20:45:48.461Z,34.04
2023-03-16T20:50:50.339Z,36.28
2023-03-16T20:55:54.505Z,36.69
2023-03-16T21:01:01.888Z,36.42
2023-03-16T21:06:14.505Z,36.65
2023-03-16T21:11:24.178Z,38.12
2023-03-16T21:16:26.742Z,35.74
2023-03-16T21:21:28.637Z,34.81
2023-03-16T21:26:32.940Z,35.97
2023-03-16T21:31:34.990Z,34.59
2023-03-16T21:36:36.807Z,34.63
2023-03-16T21:41:38.727Z,34.84
2023-03-16T21:46:40.609Z,33.96
2023-03-16T21:51:43.216Z,34.77
2023-03-16T21:56:46.494Z,34.88
2023-03-16T22:02:01.072Z,35.03
2023-03-16T22:07:10.301Z,35.42
2023-03-16T22:12:13.973Z,35.62
2023-03-16T22:17:22.167Z,35.86
2023-03-16T22:22:23.995Z,35.29
2023-03-16T22:27:26.328Z,35.30
2023-03-16T22:32:28.109Z,35.76
2023-03-16T22:37:30.379Z,35.15
2023-03-16T22:42:32.275Z,36.49
2023-03-16T22:47:36.798Z,36.57
2023-03-16T22:52:39.215Z,36.21
2023-03-16T22:57:41.122Z,36.80
2023-03-16T23:02:43.376Z,36.88
2023-03-16T23:07:46.642Z,36.26
2023-03-16T23:12:50.142Z,36.79
2023-03-16T23:17:52.261Z,35.62
2023-03-16T23:22:55.130Z,36.15
2023-03-16T23:27:59.123Z,35.24
2023-03-16T23:33:00.992Z,35.24
2023-03-16T23:38:02.998Z,36.43
2023-03-16T23:43:05.383Z,36.10
2023-03-16T23:48:16.862Z,35.51
2023-03-16T23:53:20.051Z,36.30
2023-03-16T23:58:21.939Z,36.22
